Aviation Discussion

KDTW 230214Z 2302/2406 06008KT P6SM SKC
FM230300 VRB03KT P6SM SKC
FM231600 19008KT P6SM SKC
FM240000 16005KT P6SM SCT250=

KDET 241121Z 2412/2512 VRB03KT P6SM SCT100
FM241400 19010KT P6SM SCT090 BKN150
FM242200 18012KT P6SM SCT060 OVC100
FM250800 19010KT P6SM BKN080 BKN150=

Cleveland Center Weather Service Unit (CWSU)
Mission:
Our main responsibility is to provide up to the minute weather information to FAA Supervisors and the ZOB Traffic Management Unit (TMU). Some of the products issued by the CWSU are the Center Weather Advisories (CWA) and the Meteorological Impact Statement (MIS). The CWA is an aviation weather warning for thunderstorms, severe icing or turbulence, and low IFR ceilings and visibility. The MIS is a 2-12 hour forecast for weather conditions, which are expected to impact ARTCC operations.
 
Operations:
The Cleveland Center Weather Service Unit (ZOB CWSU) is located at the Federal Aviation Administration (FAA) Air Route Traffic Control Center (ARTCC) in Oberlin, OH. Four National Weather Service meteorologists staff the office. Our hours of operation are from 6:00 A.M. to 9:30 P.M. daily.

Web Site Owner:
NOAA National Weather Service
Cleveland ARTCC Attn:CWSU
326 East Lorain Street
Oberlin, OH 44074
Web Administrator:Webmaster
Page last modified: 23 Feb 2013
Disclaimer
Credits
Glossary
Privacy Policy
About Our Organization
Career Opportunities